createdAt,value
2018-02-21T00:01:34.165Z,56.30
2018-02-21T00:04:00.325Z,56.10
2018-02-21T00:06:26.548Z,55.70
2018-02-21T00:08:52.532Z,55.60
2018-02-21T00:11:18.525Z,55.40
2018-02-21T00:13:44.509Z,55.40
2018-02-21T00:16:10.501Z,55.90
2018-02-21T00:18:37.239Z,56.00
2018-02-21T00:21:03.273Z,55.70
2018-02-21T00:23:30.789Z,55.60
2018-02-21T00:25:56.883Z,55.50
2018-02-21T00:28:22.885Z,55.40
2018-02-21T00:30:48.857Z,55.50
2018-02-21T00:33:14.846Z,55.70
2018-02-21T00:35:40.817Z,56.00
2018-02-21T00:38:06.835Z,55.60
2018-02-21T00:40:32.861Z,55.30
2018-02-21T00:42:58.904Z,55.00
2018-02-21T00:45:24.927Z,54.90
2018-02-21T00:47:50.954Z,55.00
2018-02-21T00:50:16.930Z,55.00
2018-02-21T00:52:43.638Z,55.50
2018-02-21T00:55:09.608Z,55.50
2018-02-21T00:57:36.306Z,55.30
2018-02-21T01:00:02.337Z,55.30
2018-02-21T01:02:28.308Z,55.40
2018-02-21T01:04:54.320Z,55.40
2018-02-21T01:07:20.296Z,55.90
2018-02-21T01:09:46.276Z,56.20
2018-02-21T01:12:12.251Z,55.80
2018-02-21T01:14:38.218Z,56.00
2018-02-21T01:17:04.929Z,56.30
2018-02-21T01:19:30.905Z,56.30
2018-02-21T01:21:57.636Z,56.50
2018-02-21T01:24:24.179Z,56.60
2018-02-21T01:26:50.305Z,56.40
2018-02-21T01:29:16.285Z,56.40
2018-02-21T01:31:43.013Z,57.30
2018-02-21T01:34:09.024Z,57.20
2018-02-21T01:36:35.006Z,57.00
2018-02-21T01:39:01.740Z,57.30
2018-02-21T01:41:27.741Z,57.30
2018-02-21T01:43:53.760Z,57.40
2018-02-21T01:46:19.776Z,57.30
2018-02-21T01:48:45.753Z,57.30
2018-02-21T01:51:11.732Z,57.70
2018-02-21T01:53:38.432Z,57.90
2018-02-21T01:56:04.405Z,57.90
2018-02-21T01:58:30.413Z,57.80
2018-02-21T02:00:56.409Z,58.30
2018-02-21T02:03:22.365Z,58.40
2018-02-21T02:05:48.360Z,58.60
2018-02-21T02:08:15.074Z,59.00
2018-02-21T02:10:41.041Z,58.90
2018-02-21T02:13:07.038Z,59.00
2018-02-21T02:15:33.088Z,59.00
2018-02-21T02:17:59.086Z,58.90
2018-02-21T02:20:25.077Z,59.00
2018-02-21T02:22:51.048Z,59.10
2018-02-21T02:25:17.020Z,59.30
2018-02-21T02:27:42.999Z,59.50
2018-02-21T02:30:09.730Z,59.60
2018-02-21T02:32:35.713Z,59.60
2018-02-21T02:35:01.706Z,59.40
2018-02-21T02:37:27.707Z,59.50
2018-02-21T02:39:59.750Z,59.80
2018-02-21T02:42:25.772Z,59.90
2018-02-21T02:44:52.517Z,59.50
2018-02-21T02:47:19.246Z,59.80
2018-02-21T02:49:45.237Z,59.80
2018-02-21T02:52:11.208Z,59.90
2018-02-21T02:54:37.168Z,60.10
2018-02-21T02:57:03.136Z,60.20
2018-02-21T02:59:29.123Z,60.10
2018-02-21T03:01:55.184Z,60.30
2018-02-21T03:04:21.917Z,60.60
2018-02-21T03:06:47.904Z,60.50
2018-02-21T03:09:13.872Z,60.60
2018-02-21T03:11:39.863Z,60.50
2018-02-21T03:14:05.832Z,60.60
2018-02-21T03:16:31.804Z,60.70
2018-02-21T03:18:57.796Z,60.90
2018-02-21T03:21:23.790Z,61.20
2018-02-21T03:23:50.556Z,61.70
2018-02-21T03:26:17.295Z,61.90
2018-02-21T03:28:44.001Z,62.10
2018-02-21T03:31:09.978Z,61.90
2018-02-21T03:33:35.929Z,62.40
2018-02-21T03:36:02.633Z,62.50
2018-02-21T03:38:28.689Z,62.50
2018-02-21T03:40:54.729Z,62.40
2018-02-21T03:43:20.700Z,62.30
2018-02-21T03:45:46.668Z,62.10
2018-02-21T03:48:12.628Z,62.10
2018-02-21T03:50:38.608Z,62.60
2018-02-21T03:53:04.579Z,62.30
2018-02-21T03:55:30.548Z,62.20
2018-02-21T03:57:56.557Z,62.70
2018-02-21T04:00:22.520Z,62.60
2018-02-21T04:02:48.485Z,63.00
2018-02-21T04:05:14.454Z,63.40
2018-02-21T04:07:40.440Z,63.90
2018-02-21T04:10:07.163Z,63.60
2018-02-21T04:12:33.868Z,64.20
2018-02-21T04:14:59.865Z,64.10
2018-02-21T04:17:26.655Z,65.00
2018-02-21T04:19:52.639Z,64.70
2018-02-21T04:22:18.636Z,65.50
2018-02-21T04:24:44.600Z,66.10
2018-02-21T04:27:10.570Z,66.30
2018-02-21T04:29:37.272Z,67.20
2018-02-21T04:32:03.248Z,67.20
2018-02-21T04:34:29.996Z,67.60
2018-02-21T04:36:56.236Z,67.60
2018-02-21T04:39:22.184Z,67.60
2018-02-21T04:41:48.916Z,67.80
2018-02-21T04:44:14.869Z,67.80
2018-02-21T04:46:41.612Z,68.80
2018-02-21T04:49:07.600Z,68.80
2018-02-21T04:51:33.564Z,68.60
2018-02-21T04:53:59.584Z,68.70
2018-02-21T04:56:31.676Z,69.00
2018-02-21T05:02:01.113Z,69.20
2018-02-21T05:04:27.099Z,69.00
2018-02-21T05:06:53.901Z,69.50
2018-02-21T05:09:19.879Z,69.50
2018-02-21T05:11:45.856Z,69.70
2018-02-21T05:14:11.839Z,70.00
2018-02-21T05:16:37.813Z,69.80
2018-02-21T05:19:03.780Z,70.10
2018-02-21T05:21:29.792Z,69.70
2018-02-21T05:23:55.760Z,68.80
2018-02-21T05:26:21.732Z,68.60
2018-02-21T05:28:48.433Z,69.10
2018-02-21T05:31:14.407Z,69.10
2018-02-21T05:33:40.400Z,69.70
2018-02-21T05:36:06.367Z,69.10
2018-02-21T05:38:32.332Z,69.10
2018-02-21T05:40:59.058Z,68.30
2018-02-21T05:43:25.050Z,68.20
2018-02-21T05:45:51.019Z,68.50
2018-02-21T05:48:16.992Z,68.80
2018-02-21T05:50:43.720Z,68.80
2018-02-21T05:53:09.705Z,68.80
2018-02-21T05:55:35.661Z,68.80
2018-02-21T05:58:01.686Z,68.80
2018-02-21T06:00:27.676Z,69.10
2018-02-21T06:02:54.416Z,69.00
2018-02-21T06:05:20.373Z,69.00
2018-02-21T06:07:47.080Z,68.70
2018-02-21T06:10:13.048Z,68.50
2018-02-21T06:12:39.041Z,69.10
2018-02-21T06:15:05.004Z,69.10
2018-02-21T06:17:30.992Z,68.10
2018-02-21T06:19:57.000Z,67.60
2018-02-21T06:22:23.717Z,67.80
2018-02-21T06:24:49.669Z,67.70
2018-02-21T06:27:15.633Z,67.40
2018-02-21T06:29:42.351Z,67.30
2018-02-21T06:32:08.396Z,67.30
2018-02-21T06:34:34.316Z,67.30
2018-02-21T06:37:00.297Z,67.50
2018-02-21T06:39:26.326Z,67.80
2018-02-21T06:41:52.355Z,68.90
2018-02-21T06:44:18.359Z,68.30
2018-02-21T06:46:44.342Z,68.40
2018-02-21T06:49:10.338Z,67.80
2018-02-21T06:51:36.357Z,66.90
2018-02-21T06:54:02.385Z,65.30
2018-02-21T06:56:28.384Z,64.80
2018-02-21T06:58:54.441Z,63.20
2018-02-21T07:01:20.416Z,62.30
2018-02-21T07:03:46.395Z,61.10
2018-02-21T07:06:12.360Z,60.30
2018-02-21T07:08:38.360Z,60.60
2018-02-21T07:11:05.072Z,58.90
2018-02-21T07:13:31.068Z,58.90
2018-02-21T07:15:57.048Z,57.90
2018-02-21T07:18:23.022Z,55.10
2018-02-21T07:20:48.976Z,53.80
2018-02-21T07:23:14.967Z,52.60
2018-02-21T07:25:40.920Z,51.10
2018-02-21T07:28:07.641Z,49.00
2018-02-21T07:30:35.093Z,48.30
2018-02-21T07:33:01.068Z,48.10
2018-02-21T07:35:27.799Z,47.80
2018-02-21T07:37:53.792Z,47.80
2018-02-21T07:40:19.785Z,47.70
2018-02-21T07:42:46.510Z,46.70
2018-02-21T07:45:12.477Z,46.70
2018-02-21T07:47:38.444Z,45.40
2018-02-21T07:50:04.392Z,43.50
2018-02-21T07:52:30.368Z,44.50
2018-02-21T07:54:56.369Z,44.10
2018-02-21T07:57:22.385Z,44.90
2018-02-21T07:59:48.327Z,44.10
2018-02-21T08:02:14.289Z,42.50
2018-02-21T08:04:40.246Z,41.40
2018-02-21T08:07:06.213Z,41.10
2018-02-21T08:09:32.173Z,40.90
2018-02-21T08:11:58.167Z,41.30
2018-02-21T08:14:24.912Z,39.90
2018-02-21T08:16:51.628Z,40.00
2018-02-21T08:19:17.591Z,39.90
2018-02-21T08:21:43.556Z,39.70
2018-02-21T08:24:09.546Z,40.60
2018-02-21T08:26:35.535Z,40.40
2018-02-21T08:29:01.507Z,40.30
2018-02-21T08:31:27.499Z,41.30
2018-02-21T08:33:53.480Z,41.70
2018-02-21T08:36:19.437Z,41.70
2018-02-21T08:38:45.424Z,40.90
2018-02-21T08:41:11.396Z,40.60
2018-02-21T08:43:38.839Z,42.00
2018-02-21T08:46:04.799Z,42.00
2018-02-21T08:48:30.784Z,43.60
2018-02-21T08:50:56.782Z,43.50
2018-02-21T08:53:22.752Z,44.40
2018-02-21T08:55:48.703Z,44.10
2018-02-21T08:58:14.696Z,46.10
2018-02-21T09:00:40.648Z,46.60
2018-02-21T09:03:07.356Z,46.80
2018-02-21T09:05:33.307Z,46.80
2018-02-21T09:07:59.333Z,47.80
2018-02-21T09:10:25.348Z,48.20
2018-02-21T09:12:51.340Z,48.40
2018-02-21T09:15:18.032Z,48.60
2018-02-21T09:17:43.999Z,48.50
2018-02-21T09:20:09.988Z,48.60
2018-02-21T09:22:35.955Z,48.90
2018-02-21T09:25:01.920Z,48.30
2018-02-21T09:27:28.687Z,48.10
2018-02-21T09:29:55.507Z,48.10
2018-02-21T09:32:21.479Z,48.10
2018-02-21T09:34:48.178Z,48.00
2018-02-21T09:37:14.139Z,47.90
2018-02-21T09:39:40.100Z,47.00
2018-02-21T09:42:06.795Z,46.70
2018-02-21T09:44:32.785Z,46.70
2018-02-21T09:46:59.524Z,45.80
2018-02-21T09:49:25.502Z,45.80
2018-02-21T09:51:51.471Z,46.40
2018-02-21T09:54:17.429Z,44.70
2018-02-21T09:56:44.132Z,42.60
2018-02-21T09:59:10.100Z,42.10
2018-02-21T10:01:36.048Z,42.30
2018-02-21T10:04:02.040Z,41.60
2018-02-21T10:06:28.037Z,42.20
2018-02-21T10:08:54.784Z,41.30
2018-02-21T10:11:21.507Z,40.00
2018-02-21T10:13:47.477Z,40.00
2018-02-21T10:16:14.192Z,39.70
2018-02-21T10:18:40.164Z,39.70
2018-02-21T10:21:06.860Z,41.00
2018-02-21T10:23:32.831Z,41.00
2018-02-21T10:25:58.818Z,40.50
2018-02-21T10:28:24.858Z,41.00
2018-02-21T10:30:51.543Z,41.40
2018-02-21T10:33:19.012Z,41.40
2018-02-21T10:35:44.976Z,41.30
2018-02-21T10:38:11.713Z,42.30
2018-02-21T10:40:37.684Z,42.30
2018-02-21T10:43:03.669Z,42.50
2018-02-21T10:45:29.650Z,42.20
2018-02-21T10:47:55.670Z,42.00
2018-02-21T10:50:22.396Z,42.10
2018-02-21T10:52:48.380Z,42.00
2018-02-21T10:55:14.335Z,42.40
2018-02-21T10:57:40.312Z,42.10
2018-02-21T11:00:06.280Z,41.90
2018-02-21T11:02:32.236Z,41.40
2018-02-21T11:04:58.291Z,40.90
2018-02-21T11:07:24.243Z,41.60
2018-02-21T11:09:50.209Z,41.40
2018-02-21T11:12:16.915Z,42.50
2018-02-21T11:14:42.885Z,42.50
2018-02-21T11:17:08.841Z,42.60
2018-02-21T11:19:34.816Z,43.00
2018-02-21T11:22:00.779Z,41.80
2018-02-21T11:24:26.838Z,41.90
2018-02-21T11:26:53.544Z,41.80
2018-02-21T11:29:19.507Z,41.70
2018-02-21T11:31:45.499Z,41.40
2018-02-21T11:34:11.488Z,40.50
2018-02-21T11:36:38.192Z,40.90
2018-02-21T11:39:04.168Z,40.90
2018-02-21T11:41:30.126Z,40.40
2018-02-21T11:43:56.865Z,39.50
2018-02-21T11:46:23.563Z,39.40
2018-02-21T11:48:49.531Z,39.30
2018-02-21T11:51:15.528Z,39.80
2018-02-21T11:53:41.497Z,39.90
2018-02-21T11:56:07.451Z,39.30
2018-02-21T11:58:33.459Z,39.20
2018-02-21T12:00:59.426Z,39.60
2018-02-21T12:03:26.160Z,38.50
2018-02-21T12:05:52.124Z,38.50
2018-02-21T12:08:18.827Z,38.40
2018-02-21T12:10:44.783Z,38.30
2018-02-21T12:13:10.752Z,38.50
2018-02-21T12:15:37.473Z,38.30
2018-02-21T12:18:03.444Z,38.20
2018-02-21T12:20:29.455Z,37.90
2018-02-21T12:22:55.442Z,37.70
2018-02-21T12:25:21.404Z,38.70
2018-02-21T12:27:47.355Z,38.50
2018-02-21T12:30:13.332Z,38.60
2018-02-21T12:32:42.318Z,36.90
2018-02-21T12:35:09.019Z,36.50
2018-02-21T12:37:34.998Z,36.50
2018-02-21T12:40:01.727Z,37.60
2018-02-21T12:42:27.715Z,37.70
2018-02-21T12:44:53.689Z,38.10
2018-02-21T12:47:19.665Z,37.80
2018-02-21T12:49:46.376Z,37.50
2018-02-21T12:52:12.387Z,37.40
2018-02-21T12:54:39.057Z,37.60
2018-02-21T12:57:05.084Z,37.60
2018-02-21T12:59:31.089Z,36.80
2018-02-21T13:01:57.090Z,37.20
2018-02-21T13:04:23.824Z,37.20
2018-02-21T13:06:49.788Z,37.20
2018-02-21T13:09:16.499Z,38.40
2018-02-21T13:11:42.443Z,38.10
2018-02-21T13:14:08.399Z,38.50
2018-02-21T13:16:34.389Z,38.30
2018-02-21T13:19:01.084Z,39.10
2018-02-21T13:21:27.811Z,39.10
2018-02-21T13:23:53.779Z,39.00
2018-02-21T13:26:19.738Z,38.30
2018-02-21T13:28:46.455Z,38.60
2018-02-21T13:31:12.425Z,38.60
2018-02-21T13:33:39.124Z,37.90
2018-02-21T13:36:05.096Z,37.90
2018-02-21T13:38:31.077Z,38.30
2018-02-21T13:40:57.093Z,38.60
2018-02-21T13:43:23.076Z,38.20
2018-02-21T13:45:49.028Z,38.70
2018-02-21T13:48:15.004Z,38.60
2018-02-21T13:50:41.003Z,38.70
2018-02-21T13:53:08.445Z,38.00
2018-02-21T13:55:34.553Z,38.00
2018-02-21T13:58:00.570Z,38.20
2018-02-21T14:00:27.305Z,39.10
2018-02-21T14:02:54.053Z,37.90
2018-02-21T14:05:20.796Z,37.80
2018-02-21T14:07:46.756Z,38.30
2018-02-21T14:10:13.467Z,37.70
2018-02-21T14:12:39.452Z,37.70
2018-02-21T14:15:06.171Z,38.90
2018-02-21T14:17:32.206Z,39.00
2018-02-21T14:19:58.179Z,38.60
2018-02-21T14:22:24.529Z,38.90
2018-02-21T14:24:50.508Z,37.90
2018-02-21T14:27:16.459Z,38.10
2018-02-21T14:29:42.424Z,38.30
2018-02-21T14:32:09.139Z,39.00
2018-02-21T14:34:35.207Z,39.00
2018-02-21T14:37:01.964Z,39.40
2018-02-21T14:39:28.761Z,39.90
2018-02-21T14:41:54.799Z,39.80
2018-02-21T14:44:20.793Z,39.70
2018-02-21T14:46:47.491Z,40.50
2018-02-21T14:49:13.487Z,40.10
2018-02-21T14:51:39.452Z,40.50
2018-02-21T14:54:05.419Z,40.60
2018-02-21T14:56:31.375Z,41.20
2018-02-21T14:58:57.380Z,41.70
2018-02-21T15:01:23.352Z,42.30
2018-02-21T15:03:49.322Z,42.50
2018-02-21T15:06:15.319Z,43.20
2018-02-21T15:08:41.288Z,43.10
2018-02-21T15:11:07.256Z,43.70
2018-02-21T15:13:33.237Z,44.10
2018-02-21T15:15:59.967Z,45.30
2018-02-21T15:18:26.007Z,45.20
2018-02-21T15:20:52.747Z,46.00
2018-02-21T15:23:18.727Z,45.50
2018-02-21T15:25:45.413Z,46.00
2018-02-21T15:28:11.368Z,46.00
2018-02-21T15:30:38.118Z,46.70
2018-02-21T15:33:04.080Z,46.70
2018-02-21T15:35:30.792Z,46.80
2018-02-21T15:37:56.784Z,46.70
2018-02-21T15:40:22.760Z,46.60
2018-02-21T15:42:48.714Z,46.70
2018-02-21T15:45:14.790Z,46.80
2018-02-21T15:47:40.667Z,46.90
2018-02-21T15:50:06.638Z,46.90
2018-02-21T15:52:33.352Z,47.50
2018-02-21T15:54:59.348Z,47.40
2018-02-21T15:57:25.404Z,47.60
2018-02-21T15:59:51.393Z,48.10
2018-02-21T16:02:17.341Z,48.00
2018-02-21T16:04:44.047Z,48.20
2018-02-21T16:07:10.013Z,48.10
2018-02-21T16:09:36.035Z,48.70
2018-02-21T16:12:02.007Z,48.50
2018-02-21T16:14:28.774Z,48.60
2018-02-21T16:16:54.805Z,48.60
2018-02-21T16:19:20.780Z,48.60
2018-02-21T16:21:46.751Z,48.70
2018-02-21T16:24:13.472Z,48.30
2018-02-21T16:26:39.508Z,48.60
2018-02-21T16:29:05.494Z,48.70
2018-02-21T16:31:32.212Z,48.60
2018-02-21T16:33:58.205Z,48.60
2018-02-21T16:36:24.222Z,49.00
2018-02-21T16:38:50.207Z,49.40
2018-02-21T16:41:16.192Z,49.40
2018-02-21T16:43:42.160Z,49.50
2018-02-21T16:46:08.151Z,49.50
2018-02-21T16:48:34.849Z,50.00
2018-02-21T16:51:00.849Z,50.00
2018-02-21T16:53:26.873Z,49.50
2018-02-21T16:55:52.902Z,49.40
2018-02-21T16:58:18.855Z,49.90
2018-02-21T17:00:45.591Z,49.80
2018-02-21T17:03:12.300Z,50.70
2018-02-21T17:05:38.279Z,50.30
2018-02-21T17:08:04.246Z,50.30
2018-02-21T17:10:30.236Z,50.40
2018-02-21T17:12:56.995Z,50.30
2018-02-21T17:15:22.980Z,50.30
2018-02-21T17:17:48.952Z,50.30
2018-02-21T17:20:14.948Z,50.50
2018-02-21T17:22:40.903Z,50.40
2018-02-21T17:25:06.889Z,50.10
2018-02-21T17:27:33.588Z,49.90
2018-02-21T17:29:59.655Z,49.90
2018-02-21T17:32:25.662Z,49.90
2018-02-21T17:34:51.646Z,49.80
2018-02-21T17:37:18.353Z,50.20
2018-02-21T17:39:44.327Z,50.20
2018-02-21T17:42:11.041Z,50.30
2018-02-21T17:44:37.019Z,50.30
2018-02-21T17:47:03.727Z,50.30
2018-02-21T17:49:29.824Z,50.10
2018-02-21T17:51:56.650Z,50.30
2018-02-21T17:54:22.616Z,50.20
2018-02-21T17:56:49.348Z,50.00
2018-02-21T17:59:16.045Z,50.30
2018-02-21T18:01:42.031Z,50.30
2018-02-21T18:04:08.001Z,50.10
2018-02-21T18:06:33.972Z,50.10
2018-02-21T18:09:00.000Z,50.40
2018-02-21T18:11:26.062Z,50.30
2018-02-21T18:13:52.024Z,50.20
2018-02-21T18:16:18.739Z,50.10
2018-02-21T18:18:44.712Z,50.00
2018-02-21T18:21:17.472Z,50.80
2018-02-21T18:23:43.436Z,50.70
2018-02-21T18:26:10.173Z,50.60
2018-02-21T18:28:36.144Z,50.60
2018-02-21T18:31:02.125Z,50.70
2018-02-21T18:33:28.152Z,50.70
2018-02-21T18:35:54.143Z,50.60
2018-02-21T18:38:20.835Z,50.80
2018-02-21T18:40:46.819Z,50.80
2018-02-21T18:43:13.520Z,51.10
2018-02-21T18:45:39.495Z,51.10
2018-02-21T18:48:05.473Z,50.80
2018-02-21T18:50:32.243Z,51.10
2018-02-21T18:52:58.307Z,51.10
2018-02-21T18:55:24.375Z,51.20
2018-02-21T18:57:50.348Z,51.20
2018-02-21T19:00:16.337Z,51.50
2018-02-21T19:02:42.300Z,51.80
2018-02-21T19:05:08.997Z,52.50
2018-02-21T19:07:34.944Z,52.50
2018-02-21T19:10:00.911Z,51.20
2018-02-21T19:12:27.615Z,52.30
2018-02-21T19:14:53.602Z,52.30
2018-02-21T19:17:20.323Z,53.30
2018-02-21T19:19:46.627Z,53.30
2018-02-21T19:22:12.602Z,53.10
2018-02-21T19:24:38.563Z,53.10
2018-02-21T19:27:04.542Z,53.30
2018-02-21T19:29:30.516Z,53.60
2018-02-21T19:31:56.507Z,54.00
2018-02-21T19:34:22.492Z,54.10
2018-02-21T19:36:48.462Z,54.40
2018-02-21T19:39:14.424Z,54.30
2018-02-21T19:41:40.388Z,53.30
2018-02-21T19:44:09.825Z,52.30
2018-02-21T19:46:36.835Z,51.20
2018-02-21T19:49:02.807Z,51.10
2018-02-21T19:51:28.923Z,51.10
2018-02-21T19:53:54.952Z,51.40
2018-02-21T19:56:20.931Z,50.90
2018-02-21T19:58:46.917Z,51.50
2018-02-21T20:01:12.895Z,51.10
2018-02-21T20:03:38.862Z,51.30
2018-02-21T20:06:04.871Z,51.20
2018-02-21T20:08:30.838Z,50.70
2018-02-21T20:10:57.566Z,51.20
2018-02-21T20:13:23.582Z,51.10
2018-02-21T20:15:49.555Z,51.20
2018-02-21T20:18:16.258Z,51.30
2018-02-21T20:20:42.247Z,51.30
2018-02-21T20:23:08.955Z,52.40
2018-02-21T20:25:34.907Z,52.30
2018-02-21T20:28:00.896Z,52.20
2018-02-21T20:30:27.026Z,51.90
2018-02-21T20:32:52.997Z,51.70
2018-02-21T20:35:18.955Z,52.00
2018-02-21T20:37:44.919Z,52.50
2018-02-21T20:40:10.878Z,52.40
2018-02-21T20:42:36.839Z,52.60
2018-02-21T20:45:02.813Z,53.00
2018-02-21T20:47:29.552Z,53.20
2018-02-21T20:49:55.602Z,53.10
2018-02-21T20:52:22.312Z,53.20
2018-02-21T20:54:48.279Z,53.20
2018-02-21T20:57:14.978Z,53.90
2018-02-21T20:59:40.955Z,53.20
2018-02-21T21:02:08.403Z,53.70
2018-02-21T21:04:34.363Z,53.70
2018-02-21T21:07:00.368Z,53.70
2018-02-21T21:09:26.345Z,53.60
2018-02-21T21:11:53.059Z,53.90
2018-02-21T21:14:19.031Z,53.90
2018-02-21T21:16:44.984Z,53.90
2018-02-21T21:19:10.960Z,54.30
2018-02-21T21:21:36.936Z,54.20
2018-02-21T21:24:03.026Z,54.30
2018-02-21T21:26:29.177Z,54.60
2018-02-21T21:28:55.179Z,55.20
2018-02-21T21:31:21.144Z,54.80
2018-02-21T21:33:47.203Z,55.10
2018-02-21T21:36:13.142Z,54.60
2018-02-21T21:38:39.130Z,54.70
2018-02-21T21:41:05.131Z,55.00
2018-02-21T21:43:31.875Z,55.30
2018-02-21T21:45:57.850Z,55.30
2018-02-21T21:48:23.849Z,55.40
2018-02-21T21:50:50.582Z,55.70
2018-02-21T21:53:16.525Z,55.70
2018-02-21T21:55:42.507Z,55.70
2018-02-21T21:58:15.396Z,55.40
2018-02-21T22:00:41.388Z,55.80
2018-02-21T22:03:07.387Z,55.70
2018-02-21T22:05:33.414Z,55.50
2018-02-21T22:07:59.448Z,56.20
2018-02-21T22:10:25.437Z,55.80
2018-02-21T22:12:52.151Z,56.00
2018-02-21T22:15:18.115Z,56.10
2018-02-21T22:17:44.084Z,56.50
2018-02-21T22:20:10.827Z,56.40
2018-02-21T22:22:36.830Z,56.20
2018-02-21T22:25:02.799Z,55.90
2018-02-21T22:27:28.863Z,56.40
2018-02-21T22:29:54.943Z,56.70
2018-02-21T22:32:21.724Z,56.50
2018-02-21T22:34:47.698Z,56.40
2018-02-21T22:37:13.716Z,56.60
2018-02-21T22:39:40.463Z,56.50
2018-02-21T22:42:07.174Z,56.80
2018-02-21T22:44:33.136Z,56.70
2018-02-21T22:46:59.172Z,57.00
2018-02-21T22:49:25.187Z,56.90
2018-02-21T22:51:51.147Z,56.90
2018-02-21T22:54:17.865Z,56.60
2018-02-21T22:56:43.827Z,56.60
2018-02-21T22:59:09.805Z,56.90
2018-02-21T23:01:35.762Z,57.20
2018-02-21T23:04:01.743Z,57.20
2018-02-21T23:06:28.469Z,57.20
2018-02-21T23:08:54.442Z,57.20
2018-02-21T23:11:21.146Z,56.90
2018-02-21T23:13:47.112Z,56.90
2018-02-21T23:16:13.092Z,57.00
2018-02-21T23:18:39.068Z,57.50
2018-02-21T23:21:05.044Z,56.90
2018-02-21T23:23:31.023Z,56.90
2018-02-21T23:25:57.045Z,56.80
2018-02-21T23:28:23.030Z,56.70
2018-02-21T23:30:49.743Z,56.90
2018-02-21T23:33:15.700Z,56.80
2018-02-21T23:35:41.667Z,56.50
2018-02-21T23:38:07.678Z,56.80
2018-02-21T23:40:33.660Z,56.60
2018-02-21T23:42:59.632Z,56.90
2018-02-21T23:45:25.639Z,57.10
2018-02-21T23:47:51.623Z,56.60
2018-02-21T23:50:17.583Z,56.50
2018-02-21T23:52:43.558Z,56.90
2018-02-21T23:55:09.552Z,56.50
2018-02-21T23:57:35.520Z,56.50
